Observation data for Knox City on 01/19/2019      Previous  Date  Next       Current Mesonet Observations  Soil Data  Daily Summary Page  Observations in Plain Language
KKN1 190600Z 34020G29KT 06/00 A2995 RMK A01 T00590000  RH  067%=      5-min Rain = 0
KKN1 190605Z 34020G26KT 06/00 A2996 RMK A01 T00590000  RH  067%=      5-min Rain = 0
KKN1 190610Z 34023G29KT 06/M00 A2997 RMK A01 T00581001  RH  067%=      5-min Rain = 0
KKN1 190615Z 33024G29KT 06/M00 A2997 RMK A01 T00571002  RH  066%=      5-min Rain = 0
KKN1 190620Z 34024G35KT 06/M01 A2998 RMK A01 T00551005  RH  066%=      5-min Rain = 0
KKN1 190625Z 35019G27KT 05/M01 A2998 RMK A01 T00541006  RH  066%=      5-min Rain = 0
KKN1 190630Z 34013G18KT 05/M01 A2999 RMK A01 T00541005  RH  067%=      5-min Rain = 0
KKN1 190635Z 33018G26KT 05/M01 A2999 RMK A01 T00531006  RH  066%=      5-min Rain = 0
KKN1 190640Z 34021G30KT 05/M01 A2999 RMK A01 T00531008  RH  066%=      5-min Rain = 0
KKN1 190645Z 34018G26KT 05/M01 A2999 RMK A01 T00511010  RH  065%=      5-min Rain = 0
KKN1 190650Z 34019G26KT 05/M01 A30 RMK A01 T00501011  RH  065%=      5-min Rain = 0
KKN1 190655Z 33022G31KT 05/M01 A30 RMK A01 T00501010  RH  066%=      5-min Rain = 0
KKN1 190700Z 33024G35KT 05/M01 A30 RMK A01 T00491010  RH  066%=      5-min Rain = 0
KKN1 190705Z 34020G29KT 05/M01 A3001 RMK A01 T00481009  RH  067%=      5-min Rain = 0
KKN1 190710Z 33018G23KT 05/M01 A3001 RMK A01 T00481009  RH  068%=      5-min Rain = 0
KKN1 190715Z 33020G32KT 05/M01 A3001 RMK A01 T00471009  RH  068%=      5-min Rain = 0
KKN1 190720Z 33024G31KT 04/M01 A3002 RMK A01 T00441009  RH  069%=      5-min Rain = 0
KKN1 190725Z 33024G32KT 04/M01 A3002 RMK A01 T00431010  RH  069%=      5-min Rain = 0
KKN1 190730Z 33023G28KT 04/M01 A3002 RMK A01 T00421010  RH  070%=      5-min Rain = 0
KKN1 190735Z 34024G31KT 04/M01 A3003 RMK A01 T00401010  RH  070%=      5-min Rain = 0
KKN1 190740Z 34022G32KT 04/M01 A3003 RMK A01 T00391009  RH  072%=      5-min Rain = 0
KKN1 190745Z 33022G29KT 04/M01 A3004 RMK A01 T00351006  RH  075%=      5-min Rain = 0
KKN1 190750Z 33020G29KT 03/M01 A3004 RMK A01 T00331005  RH  077%=      5-min Rain = 0
KKN1 190755Z 33022G29KT 03/M00 A3005 RMK A01 T00301004  RH  079%=      5-min Rain = 0
KKN1 190800Z 33020G30KT 02/00 A3005 RMK A01 T00240000  RH  085%=      5-min Rain = 0
KKN1 190805Z 34022G32KT 02/00 A3006 RMK A01 T00220001  RH  087%=      5-min Rain = 0
KKN1 190810Z 34024G35KT 02/00 A3006 RMK A01 T00190000  RH  089%=      5-min Rain = 0
KKN1 190815Z 34020G31KT 01/00 A3006 RMK A01 T001300-0  RH  092%=      5-min Rain = 0
KKN1 190820Z 33016G21KT 01/M00 A3006 RMK A01 T00081002  RH  095%=      5-min Rain = 0
KKN1 190825Z 33013G18KT 01/M00 A3007 RMK A01 T00051002  RH  096%=      5-min Rain = 0
KKN1 190830Z 33011KT 00/M00 A3007 RMK A01 T00041002  RH  097%=      5-min Rain = 0
KKN1 190835Z 33011KT 00/M00 A3007 RMK A01 T00041001  RH  098%=      5-min Rain = 0
KKN1 190840Z 33013G18KT 01/00 A3007 RMK A01 T00060001  RH  098%=      5-min Rain = 0
KKN1 190845Z 32012KT 01/00 A3007 RMK A01 T00080003  RH  098%=      5-min Rain = 0
KKN1 190850Z 32014KT 01/00 A3007 RMK A01 T00090003  RH  096%=      5-min Rain = 0.01
KKN1 190855Z 33014G20KT 01/00 A3007 RMK A01 T00120002  RH  095%=      5-min Rain = 0
KKN1 190900Z 32014KT 01/00 A3007 RMK A01 T00130002  RH  093%=      5-min Rain = 0.01
KKN1 190905Z 33013KT 01/00 A3007 RMK A01 T00140002  RH  093%=      5-min Rain = 0
KKN1 190910Z 33011KT 01/00 A3008 RMK A01 T00140002  RH  093%=      5-min Rain = 0
KKN1 190915Z 33010KT 02/00 A3008 RMK A01 T00150002  RH  092%=      5-min Rain = 0
KKN1 190920Z 32009KT 02/00 A3008 RMK A01 T00150002  RH  092%=      5-min Rain = 0
KKN1 190925Z 33008G13KT 02/00 A3009 RMK A01 T00160003  RH  092%=      5-min Rain = 0
KKN1 190930Z 32008KT 02/00 A3009 RMK A01 T00170003  RH  092%=      5-min Rain = 0
KKN1 190935Z 32008KT 02/00 A3009 RMK A01 T00180004  RH  091%=      5-min Rain = 0
KKN1 190940Z 32007KT 02/00 A301 RMK A01 T00180004  RH  091%=      5-min Rain = 0
KKN1 190945Z 32008KT 02/00 A301 RMK A01 T00190004  RH  091%=      5-min Rain = 0
KKN1 190950Z 32008KT 02/00 A301 RMK A01 T00200004  RH  090%=      5-min Rain = 0
KKN1 190955Z 32008KT 02/00 A301 RMK A01 T00210004  RH  090%=      5-min Rain = 0
KKN1 191000Z 32009KT 02/00 A301 RMK A01 T00210004  RH  089%=      5-min Rain = 0
KKN1 191005Z 32008KT 02/00 A301 RMK A01 T00220004  RH  089%=      5-min Rain = 0
KKN1 191010Z 32009KT 02/00 A3011 RMK A01 T00230004  RH  088%=      5-min Rain = 0
KKN1 191015Z 32009KT 02/00 A3011 RMK A01 T00240003  RH  088%=      5-min Rain = 0
KKN1 191020Z 32008KT 02/00 A3011 RMK A01 T00240004  RH  088%=      5-min Rain = 0
KKN1 191025Z 32010KT 03/00 A3011 RMK A01 T00250004  RH  087%=      5-min Rain = 0
KKN1 191030Z 32011KT 03/00 A3011 RMK A01 T00260003  RH  086%=      5-min Rain = 0
KKN1 191035Z 33010KT 03/00 A3012 RMK A01 T00270004  RH  086%=      5-min Rain = 0
KKN1 191040Z 33015G20KT 03/00 A3012 RMK A01 T00290001  RH  083%=      5-min Rain = 0
KKN1 191045Z 33014KT 03/00 A3012 RMK A01 T003000-0  RH  081%=      5-min Rain = 0
KKN1 191050Z 32016G26KT 03/M00 A3012 RMK A01 T00301001  RH  081%=      5-min Rain = 0
KKN1 191055Z 33015G23KT 03/M01 A3013 RMK A01 T00291006  RH  079%=      5-min Rain = 0
KKN1 191100Z 33016G24KT 03/M01 A3013 RMK A01 T00281007  RH  079%=      5-min Rain = 0
KKN1 191105Z 33019G25KT 03/M01 A3013 RMK A01 T00271012  RH  076%=      5-min Rain = 0
KKN1 191110Z 33017G22KT 03/M02 A3013 RMK A01 T00261015  RH  075%=      5-min Rain = 0
KKN1 191115Z 33019G25KT 03/M02 A3014 RMK A01 T00251016  RH  075%=      5-min Rain = 0
KKN1 191120Z 33016G21KT 02/M02 A3014 RMK A01 T00231018  RH  075%=      5-min Rain = 0
KKN1 191125Z 33016G21KT 02/M02 A3015 RMK A01 T00211018  RH  076%=      5-min Rain = 0
KKN1 191130Z 33020G25KT 02/M02 A3015 RMK A01 T00201023  RH  073%=      5-min Rain = 0
KKN1 191135Z 33020G27KT 02/M03 A3015 RMK A01 T00191027  RH  072%=      5-min Rain = 0
KKN1 191140Z 33018G26KT 02/M03 A3016 RMK A01 T00171028  RH  073%=      5-min Rain = 0
KKN1 191145Z 33016G21KT 02/M03 A3016 RMK A01 T00151028  RH  074%=      5-min Rain = 0
KKN1 191150Z 33018G25KT 01/M03 A3017 RMK A01 T00141031  RH  073%=      5-min Rain = 0
KKN1 191155Z 33017G24KT 01/M03 A3017 RMK A01 T00131032  RH  073%=      5-min Rain = 0
KKN1 191200Z 32017G23KT 01/M03 A3018 RMK A01 T00111033  RH  073%=      5-min Rain = 0
KKN1 191205Z 33018KT 01/M03 A3018 RMK A01 T00111033  RH  073%=      5-min Rain = 0
KKN1 191210Z 33016KT 01/M03 A3019 RMK A01 T00101034  RH  073%=      5-min Rain = 0
KKN1 191215Z 34014G20KT 01/M03 A3019 RMK A01 T00081033  RH  075%=      5-min Rain = 0
KKN1 191220Z 33015KT 01/M03 A3019 RMK A01 T00071034  RH  074%=      5-min Rain = 0
KKN1 191225Z 34013G19KT 01/M03 A302 RMK A01 T00061034  RH  075%=      5-min Rain = 0
KKN1 191230Z 34013KT 01/M04 A302 RMK A01 T00051035  RH  075%=      5-min Rain = 0
KKN1 191235Z 34012KT 00/M04 A3021 RMK A01 T00041035  RH  076%=      5-min Rain = 0
KKN1 191240Z 33010G15KT 00/M04 A3021 RMK A01 T00031035  RH  076%=      5-min Rain = 0
KKN1 191245Z 33012G17KT 00/M04 A3021 RMK A01 T00031035  RH  076%=      5-min Rain = 0
KKN1 191250Z 33012KT 00/M04 A3022 RMK A01 T00031035  RH  076%=      5-min Rain = 0
KKN1 191255Z 33012KT 00/M04 A3022 RMK A01 T00031036  RH  076%=      5-min Rain = 0
KKN1 191300Z 33013KT 00/M04 A3022 RMK A01 T00041037  RH  075%=      5-min Rain = 0
KKN1 191305Z 34012KT 00/M04 A3022 RMK A01 T00031036  RH  075%=      5-min Rain = 0
KKN1 191310Z 34011KT 00/M04 A3022 RMK A01 T00031036  RH  076%=      5-min Rain = 0
KKN1 191315Z 33010KT 00/M04 A3022 RMK A01 T00021036  RH  076%=      5-min Rain = 0
KKN1 191320Z 33010G15KT 00/M04 A3023 RMK A01 T00011036  RH  077%=      5-min Rain = 0
KKN1 191325Z 32010KT 00/M04 A3023 RMK A01 T00011036  RH  077%=      5-min Rain = 0
KKN1 191330Z 33009KT M00/M04 A3023 RMK A01 T10011036  RH  078%=      5-min Rain = 0
KKN1 191335Z 32011KT M00/M04 A3023 RMK A01 T10011036  RH  078%=      5-min Rain = 0
KKN1 191340Z 32013G18KT 00/M04 A3023 RMK A01 T00011037  RH  076%=      5-min Rain = 0
KKN1 191345Z 33014KT 00/M04 A3023 RMK A01 T00021038  RH  075%=      5-min Rain = 0
KKN1 191350Z 33013G18KT 00/M04 A3023 RMK A01 T00031038  RH  074%=      5-min Rain = 0
KKN1 191355Z 33013KT 00/M04 A3024 RMK A01 T00021039  RH  074%=      5-min Rain = 0
KKN1 191400Z 33013KT 00/M04 A3024 RMK A01 T00031038  RH  074%=      5-min Rain = 0
KKN1 191405Z 33012KT 00/M04 A3024 RMK A01 T00031038  RH  074%=      5-min Rain = 0
KKN1 191410Z 33012KT 00/M04 A3025 RMK A01 T00031037  RH  074%=      5-min Rain = 0
KKN1 191415Z 32014G21KT 00/M04 A3025 RMK A01 T00041037  RH  075%=      5-min Rain = 0
KKN1 191420Z 33015G20KT 01/M04 A3025 RMK A01 T00061039  RH  072%=      5-min Rain = 0
KKN1 191425Z 33015G20KT 01/M04 A3025 RMK A01 T00081039  RH  071%=      5-min Rain = 0
KKN1 191430Z 33015G23KT 01/M04 A3026 RMK A01 T00091039  RH  070%=      5-min Rain = 0
KKN1 191435Z 33019G26KT 01/M04 A3026 RMK A01 T00101044  RH  068%=      5-min Rain = 0
KKN1 191440Z 34017G23KT 01/M04 A3027 RMK A01 T00111042  RH  068%=      5-min Rain = 0
KKN1 191445Z 34018G25KT 01/M04 A3027 RMK A01 T00121044  RH  066%=      5-min Rain = 0
KKN1 191450Z 34016G22KT 01/M04 A3027 RMK A01 T00131043  RH  067%=      5-min Rain = 0
KKN1 191455Z 34015G24KT 01/M04 A3027 RMK A01 T00131042  RH  067%=      5-min Rain = 0
KKN1 191500Z 33017G23KT 01/M04 A3028 RMK A01 T00131043  RH  067%=      5-min Rain = 0
KKN1 191505Z 33018G24KT 01/M04 A3028 RMK A01 T00141044  RH  065%=      5-min Rain = 0
KKN1 191510Z 34018G24KT 02/M04 A3028 RMK A01 T00151043  RH  065%=      5-min Rain = 0
KKN1 191515Z 34015G20KT 02/M04 A3029 RMK A01 T00171041  RH  065%=      5-min Rain = 0
KKN1 191520Z 34017G22KT 02/M04 A3029 RMK A01 T00191041  RH  065%=      5-min Rain = 0
KKN1 191525Z 34019G24KT 02/M04 A3029 RMK A01 T00191042  RH  064%=      5-min Rain = 0
KKN1 191530Z 33018G26KT 02/M04 A303 RMK A01 T00201043  RH  063%=      5-min Rain = 0
KKN1 191535Z 34020G27KT 02/M04 A303 RMK A01 T00211044  RH  062%=      5-min Rain = 0
KKN1 191540Z 34019KT 02/M04 A3031 RMK A01 T00221044  RH  062%=      5-min Rain = 0
KKN1 191545Z 34019G26KT 02/M05 A3031 RMK A01 T00221045  RH  061%=      5-min Rain = 0
KKN1 191550Z 33020G26KT 02/M05 A3031 RMK A01 T00231046  RH  060%=      5-min Rain = 0
KKN1 191555Z 34016G25KT 03/M04 A3031 RMK A01 T00271043  RH  060%=      5-min Rain = 0
KKN1 191600Z 34019G26KT 03/M05 A3031 RMK A01 T00281046  RH  058%=      5-min Rain = 0
KKN1 191605Z 33018G23KT 03/M04 A3032 RMK A01 T00311044  RH  058%=      5-min Rain = 0
KKN1 191610Z 34019G28KT 03/M05 A3032 RMK A01 T00301046  RH  057%=      5-min Rain = 0
KKN1 191615Z 34020G27KT 03/M05 A3032 RMK A01 T00321045  RH  057%=      5-min Rain = 0
KKN1 191620Z 34019G25KT 03/M05 A3032 RMK A01 T00331045  RH  057%=      5-min Rain = 0
KKN1 191625Z 33021G28KT 03/M05 A3032 RMK A01 T00341046  RH  056%=      5-min Rain = 0
KKN1 191630Z 33020G27KT 04/M05 A3032 RMK A01 T00361045  RH  056%=      5-min Rain = 0
KKN1 191635Z 33018G25KT 04/M05 A3033 RMK A01 T00361046  RH  055%=      5-min Rain = 0
KKN1 191640Z 34019G30KT 04/M05 A3033 RMK A01 T00391046  RH  054%=      5-min Rain = 0
KKN1 191645Z 33021G29KT 04/M05 A3034 RMK A01 T00401050  RH  052%=      5-min Rain = 0
KKN1 191650Z 34019G26KT 04/M05 A3034 RMK A01 T00401051  RH  052%=      5-min Rain = 0
KKN1 191655Z 33021G26KT 04/M05 A3034 RMK A01 T00411051  RH  051%=      5-min Rain = 0
KKN1 191700Z 33019G26KT 04/M05 A3034 RMK A01 T00441048  RH  051%=      5-min Rain = 0
KKN1 191705Z 34020G30KT 05/M05 A3033 RMK A01 T00461050  RH  050%=      5-min Rain = 0
KKN1 191710Z 34021G27KT 04/M05 A3034 RMK A01 T00441054  RH  049%=      5-min Rain = 0
KKN1 191715Z 35018G23KT 05/M05 A3034 RMK A01 T00451052  RH  049%=      5-min Rain = 0
KKN1 191720Z 34019G25KT 05/M05 A3033 RMK A01 T00481051  RH  049%=      5-min Rain = 0
KKN1 191725Z 33020G25KT 05/M05 A3033 RMK A01 T00461054  RH  048%=      5-min Rain = 0
KKN1 191730Z 34022G27KT 05/M05 A3033 RMK A01 T00461054  RH  048%=      5-min Rain = 0
KKN1 191735Z 34020G26KT 05/M06 A3033 RMK A01 T00471055  RH  048%=      5-min Rain = 0
KKN1 191740Z 34019G25KT 05/M05 A3033 RMK A01 T00491053  RH  048%=      5-min Rain = 0
KKN1 191745Z 34017G26KT 05/M05 A3033 RMK A01 T00531050  RH  048%=      5-min Rain = 0
KKN1 191750Z 33020G25KT 05/M05 A3033 RMK A01 T00521053  RH  047%=      5-min Rain = 0
KKN1 191755Z 33019G27KT 06/M05 A3033 RMK A01 T00551052  RH  046%=      5-min Rain = 0
KKN1 191800Z 33018G26KT 06/M05 A3033 RMK A01 T00571051  RH  046%=      5-min Rain = 0
KKN1 191805Z 33022G27KT 05/M06 A3032 RMK A01 T00541055  RH  045%=      5-min Rain = 0
KKN1 191810Z 34019G25KT 06/M05 A3032 RMK A01 T00561054  RH  045%=      5-min Rain = 0
KKN1 191815Z 34020G26KT 06/M05 A3032 RMK A01 T00581054  RH  044%=      5-min Rain = 0
KKN1 191820Z 33020G27KT 06/M05 A3032 RMK A01 T00591053  RH  044%=      5-min Rain = 0
KKN1 191825Z 34019G26KT 06/M05 A3032 RMK A01 T00611051  RH  045%=      5-min Rain = 0
KKN1 191830Z 34018G23KT 06/M05 A3032 RMK A01 T00631050  RH  044%=      5-min Rain = 0
KKN1 191835Z 34020G28KT 06/M05 A3032 RMK A01 T00631050  RH  044%=      5-min Rain = 0
KKN1 191840Z 34020G26KT 06/M05 A3031 RMK A01 T00641050  RH  044%=      5-min Rain = 0
KKN1 191845Z 33020G25KT 07/M05 A3031 RMK A01 T00651050  RH  044%=      5-min Rain = 0
KKN1 191850Z 33018G26KT 07/M05 A303 RMK A01 T00661047  RH  045%=      5-min Rain = 0
KKN1 191855Z 33018G24KT 07/M05 A303 RMK A01 T00701048  RH  043%=      5-min Rain = 0
KKN1 191900Z 33019KT 07/M05 A3029 RMK A01 T00681049  RH  043%=      5-min Rain = 0
KKN1 191905Z 34016G22KT 07/M05 A3029 RMK A01 T00741045  RH  043%=      5-min Rain = 0
KKN1 191910Z 33019G27KT 07/M05 A3029 RMK A01 T00721049  RH  042%=      5-min Rain = 0
KKN1 191915Z 34020G28KT 07/M05 A3029 RMK A01 T00721050  RH  042%=      5-min Rain = 0
KKN1 191920Z 33018G24KT 07/M05 A3029 RMK A01 T00721050  RH  042%=      5-min Rain = 0
KKN1 191925Z 33019G27KT 08/M05 A3029 RMK A01 T00751047  RH  042%=      5-min Rain = 0
KKN1 191930Z 33018G24KT 07/M05 A3029 RMK A01 T00741049  RH  041%=      5-min Rain = 0
KKN1 191935Z 33018G25KT 08/M05 A3029 RMK A01 T00751048  RH  041%=      5-min Rain = 0
KKN1 191940Z 33016G21KT 08/M05 A3028 RMK A01 T00771045  RH  042%=      5-min Rain = 0
KKN1 191945Z 34016G24KT 08/M04 A3028 RMK A01 T00821042  RH  041%=      5-min Rain = 0
KKN1 191950Z 34015G21KT 08/M04 A3028 RMK A01 T00811042  RH  042%=      5-min Rain = 0
KKN1 191955Z 35017G23KT 08/M04 A3027 RMK A01 T00821043  RH  041%=      5-min Rain = 0
KKN1 192000Z 34017G22KT 08/M04 A3027 RMK A01 T00801043  RH  041%=      5-min Rain = 0
KKN1 192005Z 35017G22KT 08/M04 A3027 RMK A01 T00811041  RH  042%=      5-min Rain = 0
KKN1 192010Z 34017G23KT 08/M04 A3027 RMK A01 T00831039  RH  042%=      5-min Rain = 0
KKN1 192015Z 34017G22KT 08/M04 A3027 RMK A01 T00831039  RH  042%=      5-min Rain = 0
KKN1 192020Z 34017G23KT 08/M04 A3027 RMK A01 T00831039  RH  042%=      5-min Rain = 0
KKN1 192025Z 32017G22KT 08/M04 A3027 RMK A01 T00831037  RH  043%=      5-min Rain = 0
KKN1 192030Z 34018G23KT 09/M04 A3027 RMK A01 T00851038  RH  042%=      5-min Rain = 0
KKN1 192035Z 33016G23KT 09/M04 A3027 RMK A01 T00851036  RH  042%=      5-min Rain = 0
KKN1 192040Z 34013G18KT 09/M03 A3027 RMK A01 T00881033  RH  043%=      5-min Rain = 0
KKN1 192045Z 33016G22KT 09/M03 A3026 RMK A01 T00881034  RH  042%=      5-min Rain = 0
KKN1 192050Z 33016G21KT 09/M04 A3027 RMK A01 T00851037  RH  042%=      5-min Rain = 0
KKN1 192055Z 34014G20KT 09/M04 A3027 RMK A01 T00861035  RH  042%=      5-min Rain = 0
KKN1 192100Z 33015G22KT 09/M04 A3027 RMK A01 T00871036  RH  042%=      5-min Rain = 0
KKN1 192105Z 33016G23KT 09/M04 A3027 RMK A01 T00881035  RH  042%=      5-min Rain = 0
KKN1 192110Z 34018KT 09/M04 A3027 RMK A01 T00871040  RH  040%=      5-min Rain = 0
KKN1 192115Z 33015KT 09/M04 A3027 RMK A01 T00871038  RH  041%=      5-min Rain = 0
KKN1 192120Z 34015G21KT 09/M04 A3027 RMK A01 T00891037  RH  041%=      5-min Rain = 0
KKN1 192125Z 33015G22KT 09/M04 A3027 RMK A01 T00891036  RH  041%=      5-min Rain = 0
KKN1 192130Z 34015G20KT 09/M04 A3027 RMK A01 T00901038  RH  041%=      5-min Rain = 0
KKN1 192135Z 33017G23KT 09/M04 A3028 RMK A01 T00891037  RH  041%=      5-min Rain = 0
KKN1 192140Z 34015KT 09/M04 A3028 RMK A01 T00901039  RH  040%=      5-min Rain = 0
KKN1 192145Z 34014KT 09/M04 A3028 RMK A01 T00901039  RH  040%=      5-min Rain = 0
KKN1 192150Z 34013G20KT 09/M04 A3028 RMK A01 T00911037  RH  041%=      5-min Rain = 0
KKN1 192155Z 33014G20KT 09/M04 A3028 RMK A01 T00901040  RH  040%=      5-min Rain = 0
KKN1 192200Z 34014G19KT 09/M04 A3028 RMK A01 T00901040  RH  040%=      5-min Rain = 0
KKN1 192205Z 33015G23KT 09/M04 A3028 RMK A01 T00891040  RH  040%=      5-min Rain = 0
KKN1 192210Z 34013KT 09/M04 A3028 RMK A01 T00881042  RH  040%=      5-min Rain = 0
KKN1 192215Z 34011G16KT 09/M04 A3028 RMK A01 T00891041  RH  040%=      5-min Rain = 0
KKN1 192220Z 34012KT 09/M04 A3028 RMK A01 T00931038  RH  040%=      5-min Rain = 0
KKN1 192225Z 35013G18KT 09/M04 A3028 RMK A01 T00901041  RH  040%=      5-min Rain = 0
KKN1 192230Z 33011G16KT 09/M04 A3029 RMK A01 T00901038  RH  041%=      5-min Rain = 0
KKN1 192235Z 34011KT 09/M04 A3029 RMK A01 T00901039  RH  040%=      5-min Rain = 0
KKN1 192240Z 35013KT 09/M04 A3029 RMK A01 T00881041  RH  040%=      5-min Rain = 0
KKN1 192245Z 35011KT 09/M04 A3029 RMK A01 T00861041  RH  040%=      5-min Rain = 0
KKN1 192250Z 00010KT 08/M04 A3029 RMK A01 T00841043  RH  040%=      5-min Rain = 0
KKN1 192255Z 01011KT 08/M04 A3029 RMK A01 T00831043  RH  041%=      5-min Rain = 0
KKN1 192300Z 00010KT 08/M04 A3028 RMK A01 T00821043  RH  041%=      5-min Rain = 0
KKN1 192305Z 00010KT 08/M05 A3028 RMK A01 T00801046  RH  041%=      5-min Rain = 0
KKN1 192310Z 01008KT 08/M04 A3029 RMK A01 T00781044  RH  042%=      5-min Rain = 0
KKN1 192315Z 02009KT 08/M04 A3029 RMK A01 T00771044  RH  042%=      5-min Rain = 0
KKN1 192320Z 02009G14KT 08/M04 A3029 RMK A01 T00751044  RH  043%=      5-min Rain = 0
KKN1 192325Z 00009KT 07/M05 A3029 RMK A01 T00731046  RH  043%=      5-min Rain = 0
KKN1 192330Z 01010KT 07/M05 A3029 RMK A01 T00711047  RH  043%=      5-min Rain = 0
KKN1 192335Z 02008KT 07/M05 A3029 RMK A01 T00691047  RH  044%=      5-min Rain = 0
KKN1 192340Z 02007KT 07/M05 A3029 RMK A01 T00671046  RH  045%=      5-min Rain = 0
KKN1 192345Z 02007KT 06/M05 A3029 RMK A01 T00641045  RH  046%=      5-min Rain = 0
KKN1 192350Z 02007KT 06/M04 A3029 RMK A01 T00621044  RH  047%=      5-min Rain = 0
KKN1 192355Z 03007KT 06/M04 A3029 RMK A01 T00581042  RH  049%=      5-min Rain = 0
KKN1 200000Z 02006KT 06/M04 A303 RMK A01 T00561043  RH  049%=      5-min Rain = 0
KKN1 200005Z 02006KT 06/M04 A303 RMK A01 T00551044  RH  049%=      5-min Rain = 0
KKN1 200010Z 02006KT 05/M04 A303 RMK A01 T00501042  RH  051%=      5-min Rain = 0
KKN1 200015Z 02007KT 05/M04 A303 RMK A01 T00491044  RH  051%=      5-min Rain = 0
KKN1 200020Z 03008KT 05/M04 A303 RMK A01 T00471043  RH  052%=      5-min Rain = 0
KKN1 200025Z 03007KT 05/M04 A303 RMK A01 T00461044  RH  052%=      5-min Rain = 0
KKN1 200030Z 03008KT 04/M04 A303 RMK A01 T00441043  RH  053%=      5-min Rain = 0
KKN1 200035Z 02007KT 04/M05 A303 RMK A01 T00441045  RH  053%=      5-min Rain = 0
KKN1 200040Z 02006KT 04/M05 A303 RMK A01 T00431046  RH  053%=      5-min Rain = 0
KKN1 200045Z 02007KT 04/M05 A3031 RMK A01 T00411046  RH  054%=      5-min Rain = 0
KKN1 200050Z 03007KT 04/M05 A3031 RMK A01 T00391046  RH  054%=      5-min Rain = 0
KKN1 200055Z 03008KT 04/M05 A3031 RMK A01 T00381045  RH  055%=      5-min Rain = 0
KKN1 200100Z 03008KT 04/M05 A3031 RMK A01 T00371048  RH  054%=      5-min Rain = 0
KKN1 200105Z 03008KT 04/M05 A3031 RMK A01 T00361049  RH  054%=      5-min Rain = 0
KKN1 200110Z 04007KT 04/M05 A3031 RMK A01 T00351048  RH  055%=      5-min Rain = 0
KKN1 200115Z 04006KT 03/M05 A3031 RMK A01 T00341048  RH  055%=      5-min Rain = 0
KKN1 200120Z 05005KT 03/M05 A3031 RMK A01 T00321048  RH  056%=      5-min Rain = 0
KKN1 200125Z 06005KT 03/M05 A3031 RMK A01 T00281047  RH  058%=      5-min Rain = 0
KKN1 200130Z 07005KT 03/M05 A3032 RMK A01 T00261046  RH  059%=      5-min Rain = 0
KKN1 200135Z 05006KT 02/M05 A3032 RMK A01 T00241045  RH  061%=      5-min Rain = 0
KKN1 200140Z 04007KT 02/M05 A3032 RMK A01 T00241047  RH  060%=      5-min Rain = 0
KKN1 200145Z 03008KT 03/M05 A3032 RMK A01 T00251049  RH  058%=      5-min Rain = 0
KKN1 200150Z 03010KT 03/M05 A3032 RMK A01 T00251051  RH  057%=      5-min Rain = 0
KKN1 200155Z 03009KT 03/M06 A3033 RMK A01 T00271056  RH  054%=      5-min Rain = 0
KKN1 200200Z 03009KT 03/M06 A3033 RMK A01 T00261055  RH  055%=      5-min Rain = 0
KKN1 200205Z 04006KT 02/M05 A3033 RMK A01 T00231054  RH  057%=      5-min Rain = 0
KKN1 200210Z 06004KT 02/M05 A3033 RMK A01 T00211053  RH  058%=      5-min Rain = 0
KKN1 200215Z 09004KT 02/M05 A3033 RMK A01 T00191050  RH  060%=      5-min Rain = 0
KKN1 200220Z 09004KT 02/M05 A3033 RMK A01 T00171048  RH  063%=      5-min Rain = 0
KKN1 200225Z 06004KT 02/M05 A3032 RMK A01 T00151049  RH  063%=      5-min Rain = 0
KKN1 200230Z 04004KT 01/M05 A3032 RMK A01 T00131049  RH  064%=      5-min Rain = 0
KKN1 200235Z 03005KT 01/M05 A3032 RMK A01 T00131051  RH  063%=      5-min Rain = 0
KKN1 200240Z 04006KT 02/M05 A3032 RMK A01 T00151052  RH  061%=      5-min Rain = 0
KKN1 200245Z 05005KT 02/M05 A3032 RMK A01 T00151050  RH  062%=      5-min Rain = 0
KKN1 200250Z 06004KT 02/M05 A3032 RMK A01 T00151052  RH  061%=      5-min Rain = 0
KKN1 200255Z 08003KT 02/M05 A3032 RMK A01 T00161054  RH  060%=      5-min Rain = 0
KKN1 200300Z 09003KT 02/M05 A3032 RMK A01 T00151052  RH  061%=      5-min Rain = 0
KKN1 200305Z 06003KT 01/M05 A3033 RMK A01 T00141053  RH  061%=      5-min Rain = 0
KKN1 200310Z 03003KT 01/M05 A3033 RMK A01 T00111052  RH  063%=      5-min Rain = 0
KKN1 200315Z 02003KT 01/M05 A3033 RMK A01 T00081054  RH  064%=      5-min Rain = 0
KKN1 200320Z 34002KT 01/M05 A3034 RMK A01 T00071053  RH  064%=      5-min Rain = 0
KKN1 200325Z 35001KT 01/M05 A3034 RMK A01 T00071054  RH  064%=      5-min Rain = 0
KKN1 200330Z 02001KT 01/M06 A3034 RMK A01 T00101057  RH  061%=      5-min Rain = 0
KKN1 200335Z 36001KT 01/M06 A3035 RMK A01 T00111058  RH  060%=      5-min Rain = 0
KKN1 200340Z 32003KT 01/M06 A3035 RMK A01 T00101057  RH  061%=      5-min Rain = 0
KKN1 200345Z 34004KT 00/05 A3035 RMK A01 T00-00-51  RH  069%=      5-min Rain = 0
KKN1 200350Z 01003KT M01/M05 A3034 RMK A01 T10051047  RH  073%=      5-min Rain = 0
KKN1 200355Z 01002KT M01/M04 A3034 RMK A01 T10061044  RH  075%=      5-min Rain = 0
KKN1 200400Z 03003KT M00/M05 A3034 RMK A01 T10041046  RH  074%=      5-min Rain = 0
KKN1 200405Z 05005KT 00/05 A3034 RMK A01 T00-00-46  RH  071%=      5-min Rain = 0
KKN1 200410Z 05006KT M00/M05 A3034 RMK A01 T10021046  RH  073%=      5-min Rain = 0
KKN1 200415Z 06005KT 00/M05 A3035 RMK A01 T00011050  RH  069%=      5-min Rain = 0
KKN1 200420Z 06005KT 00/M05 A3034 RMK A01 T00021049  RH  069%=      5-min Rain = 0
KKN1 200425Z 08003KT 00/M05 A3035 RMK A01 T00021051  RH  068%=      5-min Rain = 0
KKN1 200430Z 09004KT 00/M05 A3034 RMK A01 T00021051  RH  068%=      5-min Rain = 0
KKN1 200435Z 10003KT 00/M05 A3035 RMK A01 T00011048  RH  070%=      5-min Rain = 0
KKN1 200440Z 08005KT 00/M05 A3035 RMK A01 T00021050  RH  068%=      5-min Rain = 0
KKN1 200445Z 07004KT 00/M05 A3035 RMK A01 T00011051  RH  068%=      5-min Rain = 0
KKN1 200450Z 07004KT 00/M05 A3035 RMK A01 T00031053  RH  066%=      5-min Rain = 0
KKN1 200455Z 07004KT 00/M05 A3035 RMK A01 T00031054  RH  066%=      5-min Rain = 0
KKN1 200500Z 07003KT 00/M06 A3036 RMK A01 T00031056  RH  065%=      5-min Rain = 0
KKN1 200505Z 08003KT 00/M06 A3036 RMK A01 T00041058  RH  063%=      5-min Rain = 0
KKN1 200510Z 09003KT 00/M05 A3036 RMK A01 T00021053  RH  067%=      5-min Rain = 0
KKN1 200515Z 10003KT 00/05 A3035 RMK A01 T00000-54  RH  067%=      5-min Rain = 0
KKN1 200520Z 12003KT M00/M05 A3035 RMK A01 T10011051  RH  070%=      5-min Rain = 0
KKN1 200525Z 15004KT M01/M05 A3035 RMK A01 T10081049  RH  074%=      5-min Rain = 0
KKN1 200530Z 14003KT M01/M05 A3035 RMK A01 T10101050  RH  074%=      5-min Rain = 0
KKN1 200535Z 11003KT M01/M05 A3035 RMK A01 T10091052  RH  073%=      5-min Rain = 0
KKN1 200540Z 09004KT M01/M05 A3036 RMK A01 T10091047  RH  076%=      5-min Rain = 0
KKN1 200545Z 08003KT M01/M05 A3036 RMK A01 T10081052  RH  073%=      5-min Rain = 0
KKN1 200550Z 07004KT M00/M06 A3036 RMK A01 T10041056  RH  068%=      5-min Rain = 0
KKN1 200555Z 07004KT M00/M06 A3036 RMK A01 T10041055  RH  069%=      5-min Rain = 0

Page generated in 0.0098 seconds.